createdAt,value
2023-02-20T00:00:43.607Z,85.72
2023-02-20T00:01:43.609Z,85.82
2023-02-20T00:02:43.604Z,85.82
2023-02-20T00:03:43.751Z,85.93
2023-02-20T00:04:43.574Z,85.93
2023-02-20T00:05:43.579Z,85.93
2023-02-20T00:06:43.584Z,85.93
2023-02-20T00:07:44.506Z,86.07
2023-02-20T00:08:43.583Z,86.17
2023-02-20T00:09:43.671Z,86.27
2023-02-20T00:10:43.620Z,86.34
2023-02-20T00:11:43.581Z,86.24
2023-02-20T00:12:43.583Z,86.13
2023-02-20T00:13:43.676Z,86.13
2023-02-20T00:14:43.633Z,86.13
2023-02-20T00:15:43.530Z,86.03
2023-02-20T00:16:43.452Z,86.24
2023-02-20T00:17:43.600Z,86.34
2023-02-20T00:18:43.474Z,86.34
2023-02-20T00:19:43.531Z,86.34
2023-02-20T00:20:43.503Z,86.44
2023-02-20T00:21:45.382Z,86.34
2023-02-20T00:22:43.440Z,86.34
2023-02-20T00:23:44.192Z,86.34
2023-02-20T00:24:43.786Z,86.34
2023-02-20T00:25:43.401Z,86.44
2023-02-20T00:26:43.507Z,86.44
2023-02-20T00:27:43.671Z,86.55
2023-02-20T00:28:43.326Z,86.65
2023-02-20T00:29:43.367Z,86.65
2023-02-20T00:30:43.411Z,86.65
2023-02-20T00:31:44.916Z,86.55
2023-02-20T00:32:43.611Z,86.44
2023-02-20T00:33:43.402Z,86.34
2023-02-20T00:34:43.761Z,86.34
2023-02-20T00:35:43.301Z,86.55
2023-02-20T00:36:43.246Z,86.69
2023-02-20T00:37:43.288Z,86.80
2023-02-20T00:38:43.333Z,87.01
2023-02-20T00:39:43.280Z,87.01
2023-02-20T00:40:43.327Z,87.11
2023-02-20T00:41:43.538Z,87.32
2023-02-20T00:42:43.337Z,87.42
2023-02-20T00:43:43.236Z,87.52
2023-02-20T00:44:43.200Z,87.52
2023-02-20T00:45:43.164Z,87.63
2023-02-20T00:46:43.353Z,87.77
2023-02-20T00:47:43.249Z,87.88
2023-02-20T00:48:43.260Z,87.88
2023-02-20T00:49:43.153Z,87.98
2023-02-20T00:50:43.156Z,88.09
2023-02-20T00:51:43.174Z,88.29
2023-02-20T00:52:43.208Z,88.40
2023-02-20T00:53:43.215Z,88.40
2023-02-20T00:54:43.190Z,88.54
2023-02-20T00:55:43.068Z,88.64
2023-02-20T00:56:43.803Z,88.85
2023-02-20T00:57:43.121Z,88.96
2023-02-20T00:58:43.215Z,88.96
2023-02-20T00:59:43.100Z,88.96
2023-02-20T01:00:43.124Z,89.06
2023-02-20T01:01:43.079Z,89.17
2023-02-20T01:02:43.105Z,89.17
2023-02-20T01:03:43.111Z,89.17
2023-02-20T01:04:43.108Z,89.17
2023-02-20T01:05:43.021Z,89.27
2023-02-20T01:06:42.976Z,89.27
2023-02-20T01:07:43.176Z,89.37
2023-02-20T01:08:43.595Z,89.48
2023-02-20T01:09:42.921Z,89.69
2023-02-20T01:10:42.926Z,89.69
2023-02-20T01:11:42.990Z,89.69
2023-02-20T01:12:43.044Z,89.73
2023-02-20T01:13:42.981Z,89.83
2023-02-20T01:14:43.015Z,89.94
2023-02-20T01:15:42.893Z,90.14
2023-02-20T01:16:42.943Z,90.14
2023-02-20T01:17:42.906Z,90.25
2023-02-20T01:18:42.949Z,90.14
2023-02-20T01:19:42.876Z,90.14
2023-02-20T01:20:43.021Z,90.04
2023-02-20T01:21:42.823Z,89.94
2023-02-20T01:22:42.824Z,90.00
2023-02-20T01:23:42.940Z,89.89
2023-02-20T01:24:42.820Z,89.79
2023-02-20T01:25:42.852Z,89.89
2023-02-20T01:26:42.781Z,89.79
2023-02-20T01:27:42.803Z,89.89
2023-02-20T01:28:42.758Z,90.10
2023-02-20T01:29:42.906Z,90.10
2023-02-20T01:30:42.811Z,90.00
2023-02-20T01:31:42.826Z,90.00
2023-02-20T01:32:42.734Z,89.89
2023-02-20T01:33:43.389Z,89.89
2023-02-20T01:34:42.830Z,90.10
2023-02-20T01:35:42.674Z,90.20
2023-02-20T01:36:42.718Z,90.20
2023-02-20T01:37:42.674Z,90.20
2023-02-20T01:38:42.670Z,90.20
2023-02-20T01:39:42.657Z,90.10
2023-02-20T01:40:42.881Z,90.20
2023-02-20T01:41:42.735Z,90.10
2023-02-20T01:42:42.612Z,90.20
2023-02-20T01:43:42.583Z,90.20
2023-02-20T01:44:42.572Z,90.20
2023-02-20T01:45:42.601Z,90.20
2023-02-20T01:46:42.544Z,90.20
2023-02-20T01:47:42.534Z,90.31
2023-02-20T01:48:42.530Z,90.31
2023-02-20T01:49:42.510Z,90.20
2023-02-20T01:50:42.517Z,90.31
2023-02-20T01:51:42.513Z,90.41
2023-02-20T01:52:42.499Z,90.31
2023-02-20T01:53:42.482Z,90.31
2023-02-20T01:54:42.489Z,90.31
2023-02-20T01:55:42.440Z,90.20
2023-02-20T01:56:42.562Z,90.31
2023-02-20T01:57:42.404Z,90.31
2023-02-20T01:58:42.422Z,90.41
2023-02-20T01:59:42.408Z,90.41
2023-02-20T02:00:42.443Z,90.20
2023-02-20T02:01:42.430Z,90.16
2023-02-20T02:02:42.401Z,90.16
2023-02-20T02:03:42.369Z,90.10
2023-02-20T02:04:42.382Z,90.10
2023-02-20T02:05:42.364Z,90.16
2023-02-20T02:06:42.353Z,90.31
2023-02-20T02:07:42.393Z,90.41
2023-02-20T02:08:42.314Z,90.41
2023-02-20T02:09:42.429Z,90.47
2023-02-20T02:10:42.312Z,90.41
2023-02-20T02:11:42.281Z,90.26
2023-02-20T02:12:42.303Z,90.26
2023-02-20T02:13:42.331Z,90.16
2023-02-20T02:14:42.272Z,90.16
2023-02-20T02:15:42.261Z,90.16
2023-02-20T02:16:42.260Z,90.16
2023-02-20T02:17:42.216Z,90.26
2023-02-20T02:18:42.225Z,90.37
2023-02-20T02:19:42.237Z,90.47
2023-02-20T02:20:42.209Z,90.47
2023-02-20T02:21:42.213Z,90.47
2023-02-20T02:22:42.199Z,90.26
2023-02-20T02:23:42.171Z,90.37
2023-02-20T02:24:42.186Z,90.47
2023-02-20T02:25:42.156Z,90.47
2023-02-20T02:26:42.283Z,90.37
2023-02-20T02:27:42.105Z,90.37
2023-02-20T02:28:42.104Z,90.37
2023-02-20T02:29:42.083Z,90.26
2023-02-20T02:30:42.095Z,90.26
2023-02-20T02:31:42.181Z,90.16
2023-02-20T02:32:42.058Z,90.16
2023-02-20T02:33:42.030Z,90.16
2023-02-20T02:34:42.047Z,90.16
2023-02-20T02:35:42.036Z,90.02
2023-02-20T02:36:42.018Z,90.12
2023-02-20T02:37:42.005Z,90.12
2023-02-20T02:38:41.984Z,89.81
2023-02-20T02:39:42.018Z,89.70
2023-02-20T02:40:41.961Z,89.60
2023-02-20T02:41:41.971Z,89.60
2023-02-20T02:42:41.989Z,89.70
2023-02-20T02:43:41.971Z,89.60
2023-02-20T02:44:41.980Z,89.70
2023-02-20T02:45:41.949Z,89.81
2023-02-20T02:46:41.909Z,89.81
2023-02-20T02:47:41.903Z,89.92
2023-02-20T02:48:41.903Z,90.02
2023-02-20T02:49:41.944Z,90.12
2023-02-20T02:50:41.872Z,90.12
2023-02-20T02:51:41.882Z,90.12
2023-02-20T02:52:41.849Z,90.12
2023-02-20T02:53:41.862Z,90.12
2023-02-20T02:54:41.856Z,90.12
2023-02-20T02:55:41.847Z,90.23
2023-02-20T02:56:41.825Z,90.23
2023-02-20T02:57:41.795Z,90.33
2023-02-20T02:58:41.828Z,90.33
2023-02-20T02:59:41.816Z,90.29
2023-02-20T03:00:41.883Z,90.19
2023-02-20T03:01:41.764Z,90.19
2023-02-20T03:02:41.794Z,90.19
2023-02-20T03:03:41.740Z,90.08
2023-02-20T03:04:41.762Z,90.08
2023-02-20T03:05:41.752Z,90.08
2023-02-20T03:06:41.738Z,90.08
2023-02-20T03:07:41.705Z,90.08
2023-02-20T03:08:41.709Z,90.08
2023-02-20T03:09:41.672Z,90.08
2023-02-20T03:10:41.665Z,90.08
2023-02-20T03:11:41.665Z,90.04
2023-02-20T03:12:41.698Z,90.04
2023-02-20T03:13:41.641Z,89.94
2023-02-20T03:14:41.662Z,90.04
2023-02-20T03:15:41.616Z,90.04
2023-02-20T03:16:41.680Z,90.04
2023-02-20T03:17:41.597Z,90.14
2023-02-20T03:18:41.603Z,90.14
2023-02-20T03:19:41.595Z,90.04
2023-02-20T03:20:41.584Z,90.10
2023-02-20T03:21:41.636Z,90.20
2023-02-20T03:22:41.537Z,90.10
2023-02-20T03:23:41.527Z,90.10
2023-02-20T03:24:41.539Z,90.10
2023-02-20T03:25:41.518Z,90.10
2023-02-20T03:26:41.516Z,90.00
2023-02-20T03:27:41.508Z,90.00
2023-02-20T03:28:41.522Z,90.00
2023-02-20T03:29:41.505Z,90.00
2023-02-20T03:30:41.472Z,90.00
2023-02-20T03:31:41.565Z,90.00
2023-02-20T03:32:41.487Z,89.86
2023-02-20T03:33:41.492Z,89.86
2023-02-20T03:34:41.461Z,89.86
2023-02-20T03:35:41.406Z,89.86
2023-02-20T03:36:41.429Z,89.86
2023-02-20T03:37:41.400Z,89.75
2023-02-20T03:38:41.404Z,89.75
2023-02-20T03:39:41.377Z,89.75
2023-02-20T03:40:41.363Z,89.75
2023-02-20T03:41:41.386Z,89.75
2023-02-20T03:42:41.335Z,89.75
2023-02-20T03:43:41.323Z,89.75
2023-02-20T03:44:41.328Z,89.75
2023-02-20T03:45:41.369Z,89.71
2023-02-20T03:46:41.314Z,89.61
2023-02-20T03:47:41.280Z,89.61
2023-02-20T03:48:41.282Z,89.50
2023-02-20T03:49:41.416Z,89.50
2023-02-20T03:50:41.273Z,89.50
2023-02-20T03:51:41.231Z,89.50
2023-02-20T03:52:41.275Z,89.50
2023-02-20T03:53:41.258Z,89.50
2023-02-20T03:54:41.255Z,89.50
2023-02-20T03:55:41.208Z,89.50
2023-02-20T03:56:41.222Z,89.36
2023-02-20T03:57:41.188Z,89.46
2023-02-20T03:58:41.217Z,89.46
2023-02-20T03:59:41.174Z,89.36
2023-02-20T04:00:41.151Z,89.25
2023-02-20T04:01:41.145Z,89.36
2023-02-20T04:02:41.129Z,89.25
2023-02-20T04:03:41.157Z,89.15
2023-02-20T04:04:41.151Z,89.11
2023-02-20T04:05:41.090Z,89.00
2023-02-20T04:06:41.110Z,89.00
2023-02-20T04:07:41.101Z,88.90
2023-02-20T04:08:41.068Z,89.00
2023-02-20T04:09:41.060Z,89.00
2023-02-20T04:10:41.049Z,89.00
2023-02-20T04:11:41.029Z,89.11
2023-02-20T04:12:41.095Z,89.00
2023-02-20T04:13:41.022Z,89.00
2023-02-20T04:14:41.028Z,89.00
2023-02-20T04:15:40.978Z,89.00
2023-02-20T04:16:41.040Z,89.00
2023-02-20T04:17:40.956Z,89.00
2023-02-20T04:18:40.958Z,89.00
2023-02-20T04:19:40.955Z,89.11
2023-02-20T04:20:40.942Z,89.07
2023-02-20T04:21:40.912Z,89.11
2023-02-20T04:22:40.910Z,89.07
2023-02-20T04:23:41.077Z,89.07
2023-02-20T04:24:41.149Z,89.17
2023-02-20T04:25:40.886Z,89.17
2023-02-20T04:26:40.894Z,89.17
2023-02-20T04:27:40.879Z,89.28
2023-02-20T04:28:40.854Z,89.28
2023-02-20T04:29:40.869Z,89.28
2023-02-20T04:30:40.996Z,89.38
2023-02-20T04:31:40.867Z,89.48
2023-02-20T04:32:40.800Z,89.38
2023-02-20T04:33:41.045Z,89.48
2023-02-20T04:34:40.798Z,89.48
2023-02-20T04:35:40.813Z,89.48
2023-02-20T04:36:40.772Z,89.48
2023-02-20T04:37:40.744Z,89.48
2023-02-20T04:38:40.737Z,89.58
2023-02-20T04:39:40.721Z,89.69
2023-02-20T04:40:40.750Z,89.69
2023-02-20T04:41:40.697Z,89.69
2023-02-20T04:42:40.690Z,89.69
2023-02-20T04:43:40.693Z,89.79
2023-02-20T04:44:40.681Z,89.89
2023-02-20T04:45:40.662Z,89.89
2023-02-20T04:46:40.656Z,89.89
2023-02-20T04:47:40.634Z,89.89
2023-02-20T04:48:40.646Z,90.00
2023-02-20T04:49:40.614Z,89.89
2023-02-20T04:50:40.623Z,89.89
2023-02-20T04:51:40.602Z,89.89
2023-02-20T04:52:40.600Z,89.86
2023-02-20T04:53:40.612Z,89.86
2023-02-20T04:54:40.567Z,89.86
2023-02-20T04:55:40.592Z,89.86
2023-02-20T04:56:40.549Z,89.86
2023-02-20T04:57:40.532Z,89.86
2023-02-20T04:58:40.531Z,89.86
2023-02-20T04:59:40.497Z,89.86
2023-02-20T05:00:40.506Z,89.96
2023-02-20T05:01:40.507Z,89.96
2023-02-20T05:02:40.488Z,89.96
2023-02-20T05:03:40.462Z,89.96
2023-02-20T05:04:40.492Z,89.96
2023-02-20T05:05:40.445Z,89.96
2023-02-20T05:06:40.489Z,90.06
2023-02-20T05:07:40.422Z,90.06
2023-02-20T05:08:40.436Z,90.06
2023-02-20T05:09:40.424Z,90.06
2023-02-20T05:10:40.438Z,90.16
2023-02-20T05:11:40.391Z,90.26
2023-02-20T05:12:40.377Z,90.26
2023-02-20T05:13:40.367Z,90.16
2023-02-20T05:14:40.346Z,90.26
2023-02-20T05:15:46.436Z,90.26
2023-02-20T05:16:40.348Z,90.16
2023-02-20T05:17:43.874Z,90.26
2023-02-20T05:18:40.313Z,90.26
2023-02-20T05:19:40.296Z,90.26
2023-02-20T05:20:40.341Z,90.37
2023-02-20T05:21:40.268Z,90.37
2023-02-20T05:22:40.287Z,90.37
2023-02-20T05:23:40.259Z,90.37
2023-02-20T05:24:40.305Z,90.47
2023-02-20T05:25:40.253Z,90.47
2023-02-20T05:26:40.250Z,90.58
2023-02-20T05:27:40.218Z,90.68
2023-02-20T05:28:40.200Z,90.78
2023-02-20T05:29:40.238Z,90.89
2023-02-20T05:30:40.292Z,90.99
2023-02-20T05:31:40.262Z,90.95
2023-02-20T05:32:40.180Z,91.05
2023-02-20T05:33:40.150Z,91.05
2023-02-20T05:34:40.142Z,91.05
2023-02-20T05:35:40.149Z,91.05
2023-02-20T05:36:40.115Z,91.16
2023-02-20T05:37:40.189Z,91.26
2023-02-20T05:38:40.091Z,91.36
2023-02-20T05:39:40.206Z,91.47
2023-02-20T05:40:40.077Z,91.67
2023-02-20T05:41:40.120Z,91.78
2023-02-20T05:42:40.059Z,91.78
2023-02-20T05:43:40.062Z,92.09
2023-02-20T05:44:40.057Z,92.09
2023-02-20T05:45:40.042Z,92.09
2023-02-20T05:46:40.091Z,92.30
2023-02-20T05:47:39.944Z,92.40
2023-02-20T05:48:40.046Z,92.40
2023-02-20T05:49:39.966Z,92.71
2023-02-20T05:50:39.962Z,92.81
2023-02-20T05:51:39.910Z,92.91
2023-02-20T05:52:40.685Z,92.71
2023-02-20T05:53:39.922Z,92.71
2023-02-20T05:54:39.900Z,92.81
2023-02-20T05:55:39.869Z,93.02
2023-02-20T05:56:39.859Z,92.91
2023-02-20T05:57:39.838Z,93.12
2023-02-20T05:58:39.849Z,93.23
2023-02-20T05:59:39.821Z,93.33
2023-02-20T06:00:39.832Z,93.64
2023-02-20T06:01:39.793Z,93.74
2023-02-20T06:02:39.792Z,93.85
2023-02-20T06:03:39.789Z,93.95
2023-02-20T06:04:39.779Z,93.95
2023-02-20T06:05:39.763Z,93.95
2023-02-20T06:06:39.750Z,93.95
2023-02-20T06:07:39.732Z,94.37
2023-02-20T06:08:39.716Z,94.57
2023-02-20T06:09:39.714Z,94.57
2023-02-20T06:10:39.735Z,94.47
2023-02-20T06:11:39.701Z,94.26
2023-02-20T06:12:39.670Z,94.37
2023-02-20T06:13:39.683Z,94.26
2023-02-20T06:14:39.682Z,94.37
2023-02-20T06:15:39.689Z,94.47
2023-02-20T06:16:39.632Z,94.26
2023-02-20T06:17:39.629Z,94.47
2023-02-20T06:18:39.713Z,94.16
2023-02-20T06:19:39.643Z,93.74
2023-02-20T06:20:39.609Z,93.54
2023-02-20T06:21:39.580Z,93.74
2023-02-20T06:22:39.830Z,93.60
2023-02-20T06:23:39.581Z,93.60
2023-02-20T06:24:39.552Z,93.60
2023-02-20T06:25:39.551Z,93.18
2023-02-20T06:26:39.553Z,93.18
2023-02-20T06:27:39.535Z,93.29
2023-02-20T06:28:39.508Z,93.08
2023-02-20T06:29:39.549Z,93.39
2023-02-20T06:30:39.521Z,93.39
2023-02-20T06:31:39.551Z,93.60
2023-02-20T06:32:39.489Z,92.72
2023-02-20T06:33:39.478Z,92.83
2023-02-20T06:34:39.449Z,92.21
2023-02-20T06:35:39.448Z,91.90
2023-02-20T06:36:39.434Z,91.38
2023-02-20T06:37:39.411Z,91.28
2023-02-20T06:38:39.423Z,91.38
2023-02-20T06:39:39.394Z,91.59
2023-02-20T06:40:39.383Z,91.69
2023-02-20T06:41:39.725Z,91.80
2023-02-20T06:42:39.350Z,91.69
2023-02-20T06:43:39.370Z,91.59
2023-02-20T06:44:39.354Z,91.69
2023-02-20T06:45:39.396Z,91.90
2023-02-20T06:46:39.382Z,91.80
2023-02-20T06:47:39.302Z,92.32
2023-02-20T06:48:39.444Z,92.63
2023-02-20T06:49:39.299Z,93.04
2023-02-20T06:50:39.313Z,93.14
2023-02-20T06:51:39.304Z,93.55
2023-02-20T06:52:39.270Z,93.66
2023-02-20T06:53:39.364Z,93.35
2023-02-20T06:54:39.241Z,93.35
2023-02-20T06:55:39.256Z,93.14
2023-02-20T06:56:39.259Z,92.72
2023-02-20T06:57:39.246Z,93.24
2023-02-20T06:58:39.192Z,92.83
2023-02-20T06:59:39.193Z,92.72
2023-02-20T07:00:39.199Z,92.72
2023-02-20T07:01:39.226Z,92.32
2023-02-20T07:02:39.177Z,92.32
2023-02-20T07:03:39.143Z,91.65
2023-02-20T07:04:39.120Z,91.96
2023-02-20T07:05:39.136Z,91.65
2023-02-20T07:06:39.101Z,91.55
2023-02-20T07:07:39.098Z,91.65
2023-02-20T07:08:39.106Z,91.96
2023-02-20T07:09:39.070Z,91.44
2023-02-20T07:10:39.084Z,91.24
2023-02-20T07:11:39.081Z,91.13
2023-02-20T07:12:39.078Z,91.13
2023-02-20T07:13:39.039Z,90.93
2023-02-20T07:14:39.031Z,90.89
2023-02-20T07:15:39.054Z,90.52
2023-02-20T07:16:39.013Z,90.26
2023-02-20T07:17:39.034Z,90.16
2023-02-20T07:18:38.999Z,90.16
2023-02-20T07:19:38.967Z,90.16
2023-02-20T07:20:38.952Z,89.75
2023-02-20T07:21:38.975Z,89.75
2023-02-20T07:22:38.930Z,89.75
2023-02-20T07:23:38.966Z,89.34
2023-02-20T07:24:38.917Z,89.03
2023-02-20T07:25:38.944Z,88.71
2023-02-20T07:26:38.890Z,88.71
2023-02-20T07:27:38.895Z,88.61
2023-02-20T07:28:38.864Z,88.37
2023-02-20T07:29:38.872Z,88.31
2023-02-20T07:30:38.985Z,88.16
2023-02-20T07:31:39.000Z,88.26
2023-02-20T07:32:38.844Z,87.85
2023-02-20T07:33:38.843Z,87.85
2023-02-20T07:34:38.868Z,88.06
2023-02-20T07:35:38.829Z,88.06
2023-02-20T07:36:38.778Z,87.23
2023-02-20T07:37:38.786Z,87.23
2023-02-20T07:38:38.830Z,87.23
2023-02-20T07:39:38.751Z,87.34
2023-02-20T07:40:40.108Z,86.92
2023-02-20T07:41:38.800Z,86.78
2023-02-20T07:42:38.731Z,86.78
2023-02-20T07:43:38.752Z,86.36
2023-02-20T07:44:38.696Z,86.68
2023-02-20T07:45:38.718Z,86.68
2023-02-20T07:46:38.703Z,86.78
2023-02-20T07:47:38.708Z,86.78
2023-02-20T07:48:38.706Z,86.98
2023-02-20T07:49:38.649Z,86.68
2023-02-20T07:50:38.633Z,86.47
2023-02-20T07:51:38.628Z,85.95
2023-02-20T07:52:38.615Z,85.95
2023-02-20T07:53:38.628Z,85.85
2023-02-20T07:54:38.595Z,85.64
2023-02-20T07:55:39.626Z,85.64
2023-02-20T07:56:38.568Z,85.33
2023-02-20T07:57:38.561Z,85.33
2023-02-20T07:58:38.638Z,85.02
2023-02-20T07:59:38.580Z,84.72
2023-02-20T08:00:38.550Z,84.41
2023-02-20T08:01:38.592Z,84.61
2023-02-20T08:02:38.536Z,84.47
2023-02-20T08:03:38.529Z,84.78
2023-02-20T08:04:38.515Z,84.47
2023-02-20T08:05:48.781Z,84.16
2023-02-20T08:06:39.840Z,84.06
2023-02-20T08:07:38.451Z,84.06
2023-02-20T08:08:38.521Z,83.44
2023-02-20T08:09:38.516Z,83.33
2023-02-20T08:10:38.409Z,83.54
2023-02-20T08:11:38.440Z,83.03
2023-02-20T08:12:38.398Z,82.71
2023-02-20T08:13:38.417Z,82.92
2023-02-20T08:14:38.440Z,82.78
2023-02-20T08:15:38.386Z,82.98
2023-02-20T08:16:38.933Z,82.89
2023-02-20T08:17:46.507Z,82.89
2023-02-20T08:18:38.353Z,82.98
2023-02-20T08:19:38.339Z,82.68
2023-02-20T08:20:38.306Z,82.47
2023-02-20T08:21:38.317Z,82.57
2023-02-20T08:22:41.804Z,82.37
2023-02-20T08:23:38.305Z,82.16
2023-02-20T08:24:38.279Z,82.06
2023-02-20T08:25:38.619Z,82.57
2023-02-20T08:26:38.278Z,82.06
2023-02-20T08:27:38.366Z,82.16
2023-02-20T08:28:38.235Z,81.65
2023-02-20T08:29:38.242Z,81.92
2023-02-20T08:30:38.226Z,81.71
2023-02-20T08:31:38.278Z,81.20
2023-02-20T08:32:38.321Z,81.51
2023-02-20T08:33:38.186Z,81.20
2023-02-20T08:34:38.162Z,81.20
2023-02-20T08:35:38.226Z,81.09
2023-02-20T08:36:38.168Z,80.89
2023-02-20T08:37:38.136Z,80.89
2023-02-20T08:38:38.135Z,80.68
2023-02-20T08:39:38.114Z,80.79
2023-02-20T08:40:38.109Z,80.79
2023-02-20T08:41:38.142Z,80.33
2023-02-20T08:42:38.148Z,80.65
2023-02-20T08:43:38.079Z,80.44
2023-02-20T08:44:38.066Z,80.65
2023-02-20T08:45:38.129Z,80.65
2023-02-20T08:46:38.047Z,80.65
2023-02-20T08:47:38.029Z,80.23
2023-02-20T08:48:38.047Z,80.13
2023-02-20T08:49:38.008Z,80.13
2023-02-20T08:50:37.992Z,80.23
2023-02-20T08:51:38.000Z,80.02
2023-02-20T08:52:37.979Z,80.44
2023-02-20T08:53:37.961Z,80.33
2023-02-20T08:54:37.967Z,80.02
2023-02-20T08:55:37.948Z,79.93
2023-02-20T08:56:37.977Z,80.02
2023-02-20T08:57:37.953Z,79.99
2023-02-20T08:58:38.876Z,79.88
2023-02-20T08:59:37.941Z,79.68
2023-02-20T09:00:37.929Z,79.47
2023-02-20T09:01:37.925Z,79.16
2023-02-20T09:02:37.905Z,79.37
2023-02-20T09:03:37.862Z,79.47
2023-02-20T09:04:37.841Z,79.27
2023-02-20T09:05:39.318Z,79.27
2023-02-20T09:06:37.829Z,79.13
2023-02-20T09:07:37.821Z,78.82
2023-02-20T09:08:37.844Z,79.03
2023-02-20T09:09:37.824Z,78.82
2023-02-20T09:10:37.785Z,78.61
2023-02-20T09:11:37.776Z,78.41
2023-02-20T09:12:37.759Z,78.20
2023-02-20T09:13:37.767Z,78.10
2023-02-20T09:14:37.770Z,78.20
2023-02-20T09:15:37.731Z,77.96
2023-02-20T09:16:37.731Z,77.96
2023-02-20T09:17:37.711Z,77.86
2023-02-20T09:18:37.747Z,77.55
2023-02-20T09:19:37.719Z,77.75
2023-02-20T09:20:37.698Z,77.55
2023-02-20T09:21:37.700Z,77.24
2023-02-20T09:22:37.645Z,77.34
2023-02-20T09:23:37.663Z,77.20
2023-02-20T09:24:37.631Z,77.00
2023-02-20T09:25:37.643Z,77.00
2023-02-20T09:26:38.237Z,76.69
2023-02-20T09:27:37.656Z,76.69
2023-02-20T09:28:37.627Z,76.38
2023-02-20T09:29:37.654Z,76.28
2023-02-20T09:30:37.656Z,76.07
2023-02-20T09:31:37.748Z,76.14
2023-02-20T09:32:37.895Z,76.04
2023-02-20T09:33:37.537Z,75.73
2023-02-20T09:34:37.526Z,75.93
2023-02-20T09:35:37.529Z,75.73
2023-02-20T09:36:37.544Z,75.63
2023-02-20T09:37:38.221Z,75.32
2023-02-20T09:38:37.523Z,75.83
2023-02-20T09:39:37.491Z,75.83
2023-02-20T09:40:37.478Z,75.63
2023-02-20T09:41:37.461Z,75.12
2023-02-20T09:42:37.457Z,75.49
2023-02-20T09:43:37.450Z,74.87
2023-02-20T09:44:37.425Z,74.98
2023-02-20T09:45:37.426Z,75.29
2023-02-20T09:46:37.418Z,74.77
2023-02-20T09:47:37.390Z,74.57
2023-02-20T09:48:37.416Z,74.67
2023-02-20T09:49:37.414Z,74.77
2023-02-20T09:50:37.357Z,74.98
2023-02-20T09:51:37.520Z,74.77
2023-02-20T09:52:37.350Z,74.67
2023-02-20T09:53:37.330Z,74.98
2023-02-20T09:54:37.345Z,74.87
2023-02-20T09:55:37.356Z,74.57
2023-02-20T09:56:37.320Z,74.67
2023-02-20T09:57:37.285Z,74.36
2023-02-20T09:58:37.335Z,74.43
2023-02-20T09:59:37.374Z,74.32
2023-02-20T10:00:37.269Z,74.12
2023-02-20T10:01:37.281Z,74.02
2023-02-20T10:02:37.344Z,73.50
2023-02-20T10:03:37.240Z,73.27
2023-02-20T10:04:37.219Z,73.16
2023-02-20T10:05:37.248Z,73.06
2023-02-20T10:06:37.228Z,73.47
2023-02-20T10:07:37.199Z,72.65
2023-02-20T10:08:37.163Z,73.40
2023-02-20T10:09:37.195Z,73.91
2023-02-20T10:10:37.158Z,73.36
2023-02-20T10:11:37.145Z,73.16
2023-02-20T10:12:37.143Z,72.34
2023-02-20T10:13:37.130Z,72.85
2023-02-20T10:14:37.106Z,72.75
2023-02-20T10:15:37.090Z,72.75
2023-02-20T10:16:37.399Z,72.55
2023-02-20T10:17:37.080Z,72.75
2023-02-20T10:18:37.067Z,72.65
2023-02-20T10:19:37.126Z,73.06
2023-02-20T10:20:37.154Z,73.16
2023-02-20T10:21:37.055Z,73.36
2023-02-20T10:22:37.019Z,73.50
2023-02-20T10:23:37.030Z,73.10
2023-02-20T10:24:37.014Z,72.99
2023-02-20T10:25:37.030Z,73.30
2023-02-20T10:26:37.063Z,73.36
2023-02-20T10:27:37.056Z,73.16
2023-02-20T10:28:37.783Z,72.41
2023-02-20T10:29:36.956Z,72.00
2023-02-20T10:30:37.018Z,72.61
2023-02-20T10:31:37.076Z,72.61
2023-02-20T10:32:36.939Z,72.61
2023-02-20T10:33:36.914Z,72.96
2023-02-20T10:34:36.919Z,72.85
2023-02-20T10:35:36.887Z,72.96
2023-02-20T10:36:37.630Z,72.51
2023-02-20T10:37:47.121Z,72.41
2023-02-20T10:38:36.866Z,72.51
2023-02-20T10:39:36.881Z,72.72
2023-02-20T10:40:36.860Z,72.61
2023-02-20T10:41:36.830Z,72.20
2023-02-20T10:42:36.811Z,72.41
2023-02-20T10:43:36.800Z,72.20
2023-02-20T10:44:49.939Z,72.10
2023-02-20T10:45:36.797Z,72.48
2023-02-20T10:46:48.159Z,72.51
2023-02-20T10:47:36.776Z,72.61
2023-02-20T10:48:36.778Z,72.51
2023-02-20T10:49:36.733Z,72.51
2023-02-20T10:50:36.760Z,72.72
2023-02-20T10:51:36.713Z,72.92
2023-02-20T10:52:36.728Z,72.61
2023-02-20T10:53:36.710Z,72.61
2023-02-20T10:54:36.694Z,72.82
2023-02-20T10:55:36.679Z,72.82
2023-02-20T10:56:36.675Z,73.13
2023-02-20T10:57:36.683Z,73.23
2023-02-20T10:58:36.647Z,73.02
2023-02-20T10:59:36.643Z,72.92
2023-02-20T11:00:36.652Z,73.13
2023-02-20T11:01:36.722Z,73.30
2023-02-20T11:02:36.593Z,73.30
2023-02-20T11:03:36.582Z,73.13
2023-02-20T11:04:36.619Z,73.54
2023-02-20T11:05:36.586Z,73.64
2023-02-20T11:06:36.592Z,73.50
2023-02-20T11:07:36.598Z,73.50
2023-02-20T11:08:36.557Z,73.81
2023-02-20T11:09:36.553Z,73.64
2023-02-20T11:10:36.517Z,73.95
2023-02-20T11:11:36.510Z,74.15
2023-02-20T11:12:36.575Z,74.26
2023-02-20T11:13:36.491Z,74.36
2023-02-20T11:14:41.383Z,74.36
2023-02-20T11:15:36.465Z,74.66
2023-02-20T11:16:43.095Z,74.57
2023-02-20T11:17:36.495Z,74.57
2023-02-20T11:18:36.465Z,74.77
2023-02-20T11:19:43.219Z,74.87
2023-02-20T11:20:36.500Z,74.87
2023-02-20T11:21:36.414Z,74.77
2023-02-20T11:22:36.414Z,74.87
2023-02-20T11:23:36.400Z,74.98
2023-02-20T11:24:36.494Z,74.84
2023-02-20T11:25:36.382Z,74.84
2023-02-20T11:26:36.397Z,74.73
2023-02-20T11:27:36.480Z,74.84
2023-02-20T11:28:36.371Z,75.15
2023-02-20T11:29:36.371Z,75.04
2023-02-20T11:30:36.486Z,75.15
2023-02-20T11:31:36.534Z,75.35
2023-02-20T11:32:36.374Z,75.24
2023-02-20T11:33:36.286Z,75.35
2023-02-20T11:34:36.278Z,75.35
2023-02-20T11:35:36.252Z,75.66
2023-02-20T11:36:36.297Z,75.76
2023-02-20T11:37:49.188Z,75.86
2023-02-20T11:38:36.312Z,75.86
2023-02-20T11:39:36.245Z,75.86
2023-02-20T11:40:36.237Z,76.07
2023-02-20T11:41:36.220Z,76.17
2023-02-20T11:42:36.269Z,76.17
2023-02-20T11:43:36.174Z,76.17
2023-02-20T11:44:36.183Z,76.37
2023-02-20T11:45:36.173Z,76.27
2023-02-20T11:46:36.203Z,76.37
2023-02-20T11:47:36.208Z,76.37
2023-02-20T11:48:36.144Z,76.48
2023-02-20T11:49:36.145Z,76.48
2023-02-20T11:50:36.209Z,76.48
2023-02-20T11:51:36.100Z,76.34
2023-02-20T11:52:36.115Z,76.48
2023-02-20T11:53:36.105Z,76.48
2023-02-20T11:54:36.077Z,76.44
2023-02-20T11:55:36.083Z,76.44
2023-02-20T11:56:36.086Z,76.24
2023-02-20T11:57:36.125Z,76.44
2023-02-20T11:58:36.059Z,76.44
2023-02-20T11:59:36.074Z,76.54
2023-02-20T12:00:36.177Z,76.44
2023-02-20T12:01:36.064Z,76.54
2023-02-20T12:02:36.124Z,76.75
2023-02-20T12:03:36.071Z,76.95
2023-02-20T12:04:36.043Z,77.09
2023-02-20T12:05:36.053Z,77.29
2023-02-20T12:06:36.121Z,77.57
2023-02-20T12:07:35.939Z,77.81
2023-02-20T12:08:35.935Z,77.67
2023-02-20T12:09:35.966Z,77.77
2023-02-20T12:10:35.889Z,77.87
2023-02-20T12:11:35.884Z,77.98
2023-02-20T12:12:35.886Z,78.39
2023-02-20T12:13:35.887Z,78.39
2023-02-20T12:14:35.866Z,78.39
2023-02-20T12:15:35.850Z,78.49
2023-02-20T12:16:35.946Z,78.39
2023-02-20T12:17:35.858Z,78.49
2023-02-20T12:18:35.883Z,78.39
2023-02-20T12:19:36.056Z,78.39
2023-02-20T12:20:35.827Z,78.35
2023-02-20T12:21:35.819Z,78.15
2023-02-20T12:22:35.867Z,78.15
2023-02-20T12:23:35.802Z,78.15
2023-02-20T12:24:35.761Z,78.15
2023-02-20T12:25:35.805Z,78.15
2023-02-20T12:26:38.298Z,78.15
2023-02-20T12:27:36.015Z,78.05
2023-02-20T12:28:36.028Z,78.15
2023-02-20T12:29:36.182Z,78.15
2023-02-20T12:30:35.725Z,78.35
2023-02-20T12:31:35.876Z,78.35
2023-02-20T12:32:36.054Z,78.45
2023-02-20T12:33:35.695Z,78.56
2023-02-20T12:34:35.836Z,78.66
2023-02-20T12:35:35.894Z,78.76
2023-02-20T12:36:36.309Z,78.80
2023-02-20T12:37:35.838Z,78.86
2023-02-20T12:38:35.952Z,78.97
2023-02-20T12:39:35.609Z,78.76
2023-02-20T12:40:35.637Z,78.97
2023-02-20T12:41:35.566Z,79.07
2023-02-20T12:42:35.625Z,79.17
2023-02-20T12:43:35.546Z,79.17
2023-02-20T12:44:35.563Z,79.07
2023-02-20T12:45:35.589Z,78.97
2023-02-20T12:46:35.862Z,79.07
2023-02-20T12:47:35.656Z,79.27
2023-02-20T12:48:35.491Z,79.38
2023-02-20T12:49:35.663Z,79.48
2023-02-20T12:50:35.485Z,79.27
2023-02-20T12:51:35.501Z,79.38
2023-02-20T12:52:35.645Z,79.48